createdAt,value
2018-01-18T00:00:16.154Z,994.72
2018-01-18T00:01:16.126Z,994.73
2018-01-18T00:02:16.100Z,994.74
2018-01-18T00:03:16.062Z,994.74
2018-01-18T00:04:16.032Z,994.73
2018-01-18T00:05:16.003Z,994.74
2018-01-18T00:06:15.972Z,994.65
2018-01-18T00:07:15.942Z,994.66
2018-01-18T00:08:15.919Z,994.63
2018-01-18T00:09:15.881Z,994.6
2018-01-18T00:10:15.850Z,994.57
2018-01-18T00:11:15.826Z,994.59
2018-01-18T00:12:15.791Z,994.55
2018-01-18T00:13:15.765Z,994.59
2018-01-18T00:14:15.734Z,994.64
2018-01-18T00:15:15.699Z,994.61
2018-01-18T00:16:15.669Z,994.53
2018-01-18T00:17:15.638Z,994.65
2018-01-18T00:18:15.607Z,994.59
2018-01-18T00:19:15.577Z,994.55
2018-01-18T00:20:15.549Z,994.58
2018-01-18T00:21:15.517Z,994.57
2018-01-18T00:22:15.486Z,994.62
2018-01-18T00:23:15.457Z,994.59
2018-01-18T00:24:15.428Z,994.61
2018-01-18T00:25:15.395Z,994.56
2018-01-18T00:26:15.366Z,994.53
2018-01-18T00:27:15.341Z,994.56
2018-01-18T00:28:15.304Z,994.49
2018-01-18T00:29:15.279Z,994.44
2018-01-18T00:30:15.244Z,994.47
2018-01-18T00:31:15.214Z,994.41
2018-01-18T00:32:15.184Z,994.42
2018-01-18T00:33:15.202Z,994.53
2018-01-18T00:34:15.123Z,994.37
2018-01-18T00:35:15.096Z,994.39
2018-01-18T00:36:15.063Z,994.38
2018-01-18T00:37:15.033Z,994.31
2018-01-18T00:38:15.005Z,994.29
2018-01-18T00:39:14.971Z,994.25
2018-01-18T00:40:14.940Z,994.28
2018-01-18T00:41:14.910Z,994.25
2018-01-18T00:42:14.881Z,994.17
2018-01-18T00:43:14.850Z,994.07
2018-01-18T00:44:14.820Z,994.15
2018-01-18T00:45:14.791Z,994.09
2018-01-18T00:46:14.760Z,994.09
2018-01-18T00:47:14.729Z,994.11
2018-01-18T00:48:14.699Z,994.06
2018-01-18T00:49:14.671Z,994.13
2018-01-18T00:50:14.639Z,994.06
2018-01-18T00:51:14.609Z,994.05
2018-01-18T00:52:14.579Z,993.98
2018-01-18T00:53:14.549Z,994.07
2018-01-18T00:54:14.519Z,994.11
2018-01-18T00:55:14.489Z,994.01
2018-01-18T00:56:14.459Z,994.08
2018-01-18T00:57:14.428Z,994.04
2018-01-18T00:58:14.397Z,994.06
2018-01-18T00:59:14.367Z,994.02
2018-01-18T01:00:14.337Z,994.07
2018-01-18T01:01:14.306Z,993.95
2018-01-18T01:02:14.279Z,993.91
2018-01-18T01:03:14.248Z,993.83
2018-01-18T01:04:14.217Z,993.83
2018-01-18T01:05:14.187Z,993.76
2018-01-18T01:06:14.157Z,993.76
2018-01-18T01:07:14.129Z,993.69
2018-01-18T01:08:14.097Z,993.72
2018-01-18T01:09:14.067Z,993.68
2018-01-18T01:10:14.037Z,993.68
2018-01-18T01:11:14.006Z,993.72
2018-01-18T01:12:13.976Z,993.69
2018-01-18T01:13:13.948Z,993.62
2018-01-18T01:14:13.917Z,993.6
2018-01-18T01:15:13.888Z,993.58
2018-01-18T01:16:13.855Z,993.56
2018-01-18T01:17:13.826Z,993.59
2018-01-18T01:18:13.795Z,993.47
2018-01-18T01:19:13.766Z,993.43
2018-01-18T01:20:13.737Z,993.46
2018-01-18T01:21:13.706Z,993.38
2018-01-18T01:22:13.676Z,993.39
2018-01-18T01:23:13.646Z,993.37
2018-01-18T01:24:13.615Z,993.31
2018-01-18T01:25:13.586Z,993.29
2018-01-18T01:26:13.557Z,993.23
2018-01-18T01:27:13.526Z,993.21
2018-01-18T01:28:13.495Z,993.1
2018-01-18T01:29:13.466Z,993.04
2018-01-18T01:30:13.535Z,993.03
2018-01-18T01:31:13.405Z,993
2018-01-18T01:32:13.376Z,992.89
2018-01-18T01:33:13.345Z,992.95
2018-01-18T01:34:13.316Z,992.92
2018-01-18T01:35:13.285Z,992.97
2018-01-18T01:36:13.255Z,992.95
2018-01-18T01:37:13.226Z,992.92
2018-01-18T01:38:13.194Z,992.91
2018-01-18T01:39:13.166Z,993
2018-01-18T01:40:13.138Z,993.06
2018-01-18T01:41:13.104Z,993.02
2018-01-18T01:42:13.074Z,993.02
2018-01-18T01:43:13.044Z,993.01
2018-01-18T01:44:13.016Z,993.03
2018-01-18T01:45:12.985Z,993.01
2018-01-18T01:46:12.955Z,992.98
2018-01-18T01:47:12.925Z,992.98
2018-01-18T01:48:12.895Z,992.93
2018-01-18T01:49:12.864Z,992.89
2018-01-18T01:50:12.836Z,992.84
2018-01-18T01:51:12.805Z,992.79
2018-01-18T01:52:12.782Z,992.81
2018-01-18T01:53:12.746Z,992.71
2018-01-18T01:54:12.715Z,992.66
2018-01-18T01:55:12.686Z,992.63
2018-01-18T01:56:12.656Z,992.64
2018-01-18T01:57:12.627Z,992.61
2018-01-18T01:58:12.596Z,992.58
2018-01-18T01:59:12.566Z,992.54
2018-01-18T02:00:12.535Z,992.51
2018-01-18T02:01:12.505Z,992.45
2018-01-18T02:02:12.478Z,992.36
2018-01-18T02:03:12.445Z,992.32
2018-01-18T02:04:12.416Z,992.3
2018-01-18T02:05:12.386Z,992.29
2018-01-18T02:06:12.356Z,992.17
2018-01-18T02:07:12.327Z,992.17
2018-01-18T02:08:12.300Z,992.13
2018-01-18T02:09:12.266Z,992.14
2018-01-18T02:10:12.238Z,992.16
2018-01-18T02:11:12.206Z,992.15
2018-01-18T02:12:12.177Z,992.12
2018-01-18T02:13:12.147Z,992.15
2018-01-18T02:14:12.117Z,992.14
2018-01-18T02:15:12.088Z,992.15
2018-01-18T02:16:12.058Z,992.17
2018-01-18T02:17:12.028Z,992.13
2018-01-18T02:18:11.997Z,992.01
2018-01-18T02:19:11.969Z,991.98
2018-01-18T02:20:11.939Z,992.03
2018-01-18T02:21:11.910Z,992
2018-01-18T02:22:11.879Z,991.95
2018-01-18T02:23:11.849Z,991.91
2018-01-18T02:24:11.821Z,991.8
2018-01-18T02:25:11.790Z,991.7
2018-01-18T02:26:11.761Z,991.67
2018-01-18T02:27:11.730Z,991.63
2018-01-18T02:28:11.700Z,991.63
2018-01-18T02:29:11.670Z,991.63
2018-01-18T02:30:11.641Z,991.6
2018-01-18T02:31:11.612Z,991.56
2018-01-18T02:32:11.587Z,991.52
2018-01-18T02:33:11.552Z,991.37
2018-01-18T02:34:11.529Z,991.29
2018-01-18T02:35:11.492Z,991.3
2018-01-18T02:36:11.461Z,991.32
2018-01-18T02:37:11.433Z,991.29
2018-01-18T02:38:11.404Z,991.29
2018-01-18T02:39:11.374Z,991.23
2018-01-18T02:40:11.344Z,991.2
2018-01-18T02:41:11.315Z,991.25
2018-01-18T02:42:11.283Z,991.21
2018-01-18T02:43:11.255Z,991.19
2018-01-18T02:44:11.225Z,991.2
2018-01-18T02:45:11.195Z,991.09
2018-01-18T02:46:11.166Z,991.02
2018-01-18T02:47:11.134Z,991.04
2018-01-18T02:48:11.104Z,990.98
2018-01-18T02:49:11.078Z,990.96
2018-01-18T02:50:11.047Z,990.95
2018-01-18T02:51:11.017Z,990.96
2018-01-18T02:52:10.986Z,990.84
2018-01-18T02:53:11.002Z,990.81
2018-01-18T02:54:10.928Z,990.77
2018-01-18T02:55:10.898Z,990.69
2018-01-18T02:56:10.869Z,990.75
2018-01-18T02:57:10.839Z,990.62
2018-01-18T02:58:10.808Z,990.67
2018-01-18T02:59:10.778Z,990.59
2018-01-18T03:00:10.801Z,990.5
2018-01-18T03:01:10.719Z,990.5
2018-01-18T03:02:10.689Z,990.43
2018-01-18T03:03:10.662Z,990.48
2018-01-18T03:04:10.633Z,990.4
2018-01-18T03:05:10.601Z,990.37
2018-01-18T03:06:10.571Z,990.3
2018-01-18T03:07:10.544Z,990.25
2018-01-18T03:08:10.512Z,990.27
2018-01-18T03:09:10.482Z,990.22
2018-01-18T03:10:10.452Z,990.19
2018-01-18T03:11:10.422Z,990.16
2018-01-18T03:12:10.393Z,990.08
2018-01-18T03:13:10.363Z,990.08
2018-01-18T03:14:10.332Z,990.09
2018-01-18T03:15:10.303Z,989.96
2018-01-18T03:16:10.272Z,989.95
2018-01-18T03:17:10.243Z,989.96
2018-01-18T03:18:10.214Z,989.93
2018-01-18T03:19:10.185Z,989.83
2018-01-18T03:20:10.154Z,989.83
2018-01-18T03:21:10.125Z,989.7
2018-01-18T03:22:10.095Z,989.75
2018-01-18T03:23:10.065Z,989.66
2018-01-18T03:24:10.034Z,989.59
2018-01-18T03:25:10.005Z,989.49
2018-01-18T03:26:09.975Z,989.49
2018-01-18T03:27:09.945Z,989.42
2018-01-18T03:28:09.915Z,989.42
2018-01-18T03:29:09.885Z,989.46
2018-01-18T03:30:09.856Z,989.45
2018-01-18T03:31:09.826Z,989.38
2018-01-18T03:32:09.797Z,989.36
2018-01-18T03:33:09.766Z,989.33
2018-01-18T03:34:09.737Z,989.34
2018-01-18T03:35:09.706Z,989.22
2018-01-18T03:36:09.676Z,989.24
2018-01-18T03:37:09.647Z,989.18
2018-01-18T03:38:09.616Z,989.09
2018-01-18T03:39:09.587Z,989.12
2018-01-18T03:40:09.557Z,989.09
2018-01-18T03:41:09.527Z,988.99
2018-01-18T03:42:09.496Z,988.95
2018-01-18T03:43:09.468Z,988.92
2018-01-18T03:44:09.438Z,988.84
2018-01-18T03:45:09.407Z,988.79
2018-01-18T03:46:09.377Z,988.83
2018-01-18T03:47:09.346Z,988.72
2018-01-18T03:48:09.317Z,988.61
2018-01-18T03:49:09.333Z,988.48
2018-01-18T03:50:09.257Z,988.44
2018-01-18T03:51:09.228Z,988.26
2018-01-18T03:52:09.197Z,988.31
2018-01-18T03:53:09.167Z,988.23
2018-01-18T03:54:09.138Z,988.21
2018-01-18T03:55:09.108Z,988.09
2018-01-18T03:56:09.077Z,987.96
2018-01-18T03:57:09.048Z,987.94
2018-01-18T03:58:09.017Z,987.84
2018-01-18T03:59:08.987Z,987.84
2018-01-18T04:00:08.956Z,987.68
2018-01-18T04:01:08.927Z,987.64
2018-01-18T04:02:08.898Z,987.52
2018-01-18T04:03:08.868Z,987.43
2018-01-18T04:04:08.838Z,987.36
2018-01-18T04:05:08.815Z,987.32
2018-01-18T04:06:08.778Z,987.28
2018-01-18T04:07:08.747Z,987.19
2018-01-18T04:08:08.716Z,987.08
2018-01-18T04:09:08.686Z,986.96
2018-01-18T04:10:08.657Z,986.9
2018-01-18T04:11:08.727Z,986.92
2018-01-18T04:12:08.595Z,986.87
2018-01-18T04:13:08.572Z,986.91
2018-01-18T04:14:08.537Z,986.81
2018-01-18T04:15:08.506Z,986.7
2018-01-18T04:16:08.476Z,986.61
2018-01-18T04:17:08.447Z,986.58
2018-01-18T04:18:08.416Z,986.53
2018-01-18T04:19:08.385Z,986.41
2018-01-18T04:20:08.361Z,986.34
2018-01-18T04:21:08.327Z,986.26
2018-01-18T04:22:08.296Z,986.18
2018-01-18T04:23:08.266Z,986.12
2018-01-18T04:24:08.235Z,986.15
2018-01-18T04:25:08.204Z,986.18
2018-01-18T04:26:08.178Z,986.07
2018-01-18T04:27:08.144Z,986.02
2018-01-18T04:28:08.115Z,985.89
2018-01-18T04:29:08.085Z,985.86
2018-01-18T04:30:08.054Z,985.79
2018-01-18T04:31:08.025Z,985.65
2018-01-18T04:32:08.028Z,985.68
2018-01-18T04:33:07.964Z,985.68
2018-01-18T04:34:07.934Z,985.56
2018-01-18T04:35:07.903Z,985.54
2018-01-18T04:36:07.874Z,985.44
2018-01-18T04:37:07.845Z,985.4
2018-01-18T04:38:07.812Z,985.31
2018-01-18T04:39:07.783Z,985.31
2018-01-18T04:40:07.754Z,985.16
2018-01-18T04:41:07.721Z,985.17
2018-01-18T04:42:07.691Z,985.05
2018-01-18T04:43:07.661Z,984.99
2018-01-18T04:44:07.632Z,984.88
2018-01-18T04:45:07.601Z,984.89
2018-01-18T04:46:07.571Z,984.93
2018-01-18T04:47:07.542Z,984.94
2018-01-18T04:48:07.510Z,984.89
2018-01-18T04:49:07.479Z,984.65
2018-01-18T04:50:07.450Z,984.64
2018-01-18T04:51:07.421Z,984.51
2018-01-18T04:52:07.388Z,984.42
2018-01-18T04:53:07.358Z,984.38
2018-01-18T04:54:07.327Z,984.42
2018-01-18T04:55:07.297Z,984.24
2018-01-18T04:56:07.266Z,984.22
2018-01-18T04:57:07.237Z,984.11
2018-01-18T04:58:07.207Z,984.01
2018-01-18T04:59:07.179Z,983.96
2018-01-18T05:00:07.146Z,983.85
2018-01-18T05:01:07.114Z,983.84
2018-01-18T05:02:07.084Z,983.81
2018-01-18T05:03:07.053Z,983.79
2018-01-18T05:04:07.022Z,983.78
2018-01-18T05:05:06.992Z,983.58
2018-01-18T05:06:06.961Z,983.56
2018-01-18T05:07:06.931Z,983.44
2018-01-18T05:08:06.900Z,983.48
2018-01-18T05:09:06.871Z,983.39
2018-01-18T05:10:06.839Z,983.3
2018-01-18T05:11:06.810Z,983.36
2018-01-18T05:12:06.779Z,983.25
2018-01-18T05:13:06.747Z,983.25
2018-01-18T05:14:06.717Z,983.26
2018-01-18T05:15:06.687Z,983.21
2018-01-18T05:16:06.656Z,983.08
2018-01-18T05:17:06.625Z,983.05
2018-01-18T05:18:06.596Z,983.09
2018-01-18T05:19:06.564Z,982.83
2018-01-18T05:20:06.535Z,982.89
2018-01-18T05:21:06.505Z,983.06
2018-01-18T05:22:06.472Z,983.04
2018-01-18T05:23:06.441Z,982.91
2018-01-18T05:24:06.413Z,982.81
2018-01-18T05:25:06.415Z,982.6
2018-01-18T05:26:06.355Z,982.64
2018-01-18T05:27:06.319Z,982.68
2018-01-18T05:28:06.288Z,982.82
2018-01-18T05:29:06.259Z,982.53
2018-01-18T05:30:06.228Z,982.6
2018-01-18T05:31:06.198Z,982.32
2018-01-18T05:32:06.167Z,982.36
2018-01-18T05:33:06.136Z,982.32
2018-01-18T05:34:06.105Z,982.33
2018-01-18T05:35:06.075Z,982.35
2018-01-18T05:36:06.045Z,982.34
2018-01-18T05:37:06.013Z,982.29
2018-01-18T05:38:05.983Z,982.32
2018-01-18T05:39:05.953Z,982.4
2018-01-18T05:40:05.921Z,982.13
2018-01-18T05:41:05.890Z,982.08
2018-01-18T05:42:05.860Z,981.99
2018-01-18T05:43:05.830Z,981.96
2018-01-18T05:44:05.800Z,981.86
2018-01-18T05:45:05.814Z,981.74
2018-01-18T05:46:05.739Z,981.61
2018-01-18T05:47:05.708Z,981.75
2018-01-18T05:48:05.677Z,981.69
2018-01-18T05:49:05.648Z,981.51
2018-01-18T05:50:05.618Z,981.41
2018-01-18T05:51:05.637Z,981.46
2018-01-18T05:52:05.555Z,981.36
2018-01-18T05:53:05.525Z,981.28
2018-01-18T05:54:05.494Z,981.34
2018-01-18T05:55:05.466Z,981.12
2018-01-18T05:56:05.434Z,981.25
2018-01-18T05:57:05.401Z,981.27
2018-01-18T05:58:05.372Z,981.2
2018-01-18T05:59:05.342Z,981.31
2018-01-18T06:00:05.312Z,981.21
2018-01-18T06:01:05.280Z,981.19
2018-01-18T06:02:05.250Z,981.23
2018-01-18T06:03:05.219Z,981.2
2018-01-18T06:04:05.189Z,981.24
2018-01-18T06:05:05.159Z,981.19
2018-01-18T06:06:05.128Z,981.03
2018-01-18T06:07:05.097Z,981.12
2018-01-18T06:08:05.067Z,980.98
2018-01-18T06:09:05.037Z,981.01
2018-01-18T06:10:05.011Z,981
2018-01-18T06:11:04.976Z,980.96
2018-01-18T06:12:04.945Z,980.68
2018-01-18T06:13:04.914Z,980.89
2018-01-18T06:14:04.883Z,981.01
2018-01-18T06:15:05.280Z,980.79
2018-01-18T06:16:05.075Z,980.77
2018-01-18T06:17:04.898Z,980.62
2018-01-18T06:18:04.762Z,980.61
2018-01-18T06:19:04.730Z,980.55
2018-01-18T06:20:04.701Z,980.44
2018-01-18T06:21:04.669Z,980.48
2018-01-18T06:22:04.639Z,980.15
2018-01-18T06:23:04.609Z,980.31
2018-01-18T06:24:04.581Z,980.08
2018-01-18T06:25:04.549Z,980
2018-01-18T06:26:04.516Z,980.11
2018-01-18T06:27:04.486Z,980.04
2018-01-18T06:28:04.456Z,979.96
2018-01-18T06:29:04.427Z,979.76
2018-01-18T06:30:04.396Z,979.8
2018-01-18T06:31:04.366Z,979.71
2018-01-18T06:32:04.335Z,979.58
2018-01-18T06:33:04.305Z,979.61
2018-01-18T06:34:04.274Z,979.57
2018-01-18T06:35:04.246Z,979.36
2018-01-18T06:36:04.214Z,979.42
2018-01-18T06:37:04.183Z,979.49
2018-01-18T06:38:04.154Z,979.39
2018-01-18T06:39:04.123Z,979.51
2018-01-18T06:40:04.093Z,979.39
2018-01-18T06:41:04.062Z,979.34
2018-01-18T06:42:04.033Z,979.31
2018-01-18T06:43:04.003Z,979.27
2018-01-18T06:44:03.974Z,979.19
2018-01-18T06:45:03.945Z,979.11
2018-01-18T06:46:03.912Z,979.37
2018-01-18T06:47:03.884Z,979.12
2018-01-18T06:48:04.102Z,979.34
2018-01-18T06:49:03.823Z,979.25
2018-01-18T06:50:03.792Z,979.09
2018-01-18T06:51:03.763Z,979.23
2018-01-18T06:52:03.737Z,979.27
2018-01-18T06:53:03.703Z,979.27
2018-01-18T06:54:03.675Z,979.37
2018-01-18T06:55:03.643Z,979.17
2018-01-18T06:56:03.612Z,979.12
2018-01-18T06:57:03.584Z,979.1
2018-01-18T06:58:03.553Z,979.23
2018-01-18T06:59:03.524Z,979.14
2018-01-18T07:00:03.494Z,979.4
2018-01-18T07:01:03.464Z,979.23
2018-01-18T07:02:03.435Z,979.12
2018-01-18T07:03:03.405Z,978.92
2018-01-18T07:04:03.374Z,978.92
2018-01-18T07:05:03.345Z,978.92
2018-01-18T07:06:03.364Z,978.78
2018-01-18T07:07:03.284Z,978.88
2018-01-18T07:08:03.256Z,978.92
2018-01-18T07:09:03.229Z,978.61
2018-01-18T07:10:03.197Z,978.66
2018-01-18T07:11:03.167Z,978.46
2018-01-18T07:12:03.139Z,978.24
2018-01-18T07:13:03.109Z,978.03
2018-01-18T07:14:03.078Z,978.48
2018-01-18T07:15:03.049Z,978.47
2018-01-18T07:16:03.019Z,978.44
2018-01-18T07:17:02.991Z,978.68
2018-01-18T07:18:02.960Z,978.59
2018-01-18T07:19:02.938Z,978.4
2018-01-18T07:20:02.903Z,978.45
2018-01-18T07:21:02.872Z,978.52
2018-01-18T07:22:02.847Z,978.47
2018-01-18T07:23:02.813Z,978.62
2018-01-18T07:24:02.786Z,978.52
2018-01-18T07:25:02.755Z,978.43
2018-01-18T07:26:02.726Z,978.41
2018-01-18T07:27:02.700Z,978.31
2018-01-18T07:28:02.672Z,978.16
2018-01-18T07:29:02.638Z,978.16
2018-01-18T07:30:02.610Z,978.06
2018-01-18T07:31:02.581Z,977.99
2018-01-18T07:32:02.552Z,978.02
2018-01-18T07:33:02.523Z,978.11
2018-01-18T07:34:02.495Z,978.01
2018-01-18T07:35:02.465Z,977.78
2018-01-18T07:36:02.436Z,978.08
2018-01-18T07:37:02.408Z,978.02
2018-01-18T07:38:02.429Z,977.9
2018-01-18T07:39:02.350Z,977.99
2018-01-18T07:40:02.322Z,977.86
2018-01-18T07:41:02.294Z,977.98
2018-01-18T07:42:02.264Z,977.93
2018-01-18T07:43:02.235Z,977.86
2018-01-18T07:44:02.207Z,977.9
2018-01-18T07:45:02.179Z,978.1
2018-01-18T07:46:02.150Z,977.59
2018-01-18T07:47:02.121Z,977.62
2018-01-18T07:48:02.094Z,977.7
2018-01-18T07:49:02.064Z,977.69
2018-01-18T07:50:02.159Z,977.52
2018-01-18T07:51:02.240Z,977.37
2018-01-18T07:52:01.979Z,977.68
2018-01-18T07:53:01.950Z,977.65
2018-01-18T07:54:01.921Z,977.48
2018-01-18T07:55:01.894Z,977.31
2018-01-18T07:56:01.866Z,977.45
2018-01-18T07:57:01.838Z,977.31
2018-01-18T07:58:01.808Z,977.28
2018-01-18T07:59:01.831Z,977.19
2018-01-18T08:00:01.752Z,977.44
2018-01-18T08:01:01.723Z,977.32
2018-01-18T08:02:01.696Z,977.26
2018-01-18T08:03:01.668Z,977.1
2018-01-18T08:04:01.640Z,977.16
2018-01-18T08:05:01.611Z,977.24
2018-01-18T08:06:01.586Z,977.15
2018-01-18T08:07:01.658Z,977.11
2018-01-18T08:08:01.529Z,977.3
2018-01-18T08:09:01.500Z,977.24
2018-01-18T08:10:01.473Z,977.07
2018-01-18T08:11:01.753Z,977.22
2018-01-18T08:12:01.703Z,977.05
2018-01-18T08:13:01.471Z,976.97
2018-01-18T08:14:01.997Z,977.06
2018-01-18T08:15:01.773Z,976.9
2018-01-18T08:16:01.306Z,976.82
2018-01-18T08:17:01.280Z,976.91
2018-01-18T08:18:01.252Z,976.69
2018-01-18T08:19:01.226Z,976.76
2018-01-18T08:20:01.198Z,976.76
2018-01-18T08:21:01.171Z,976.84
2018-01-18T08:22:01.144Z,976.77
2018-01-18T08:23:01.116Z,976.83
2018-01-18T08:24:01.089Z,976.52
2018-01-18T08:25:01.063Z,976.77
2018-01-18T08:26:01.036Z,976.67
2018-01-18T08:27:01.009Z,976.87
2018-01-18T08:28:00.982Z,976.69
2018-01-18T08:29:00.954Z,976.68
2018-01-18T08:30:00.929Z,976.66
2018-01-18T08:31:00.901Z,976.6
2018-01-18T08:32:00.873Z,976.86
2018-01-18T08:33:00.848Z,976.64
2018-01-18T08:34:00.820Z,976.69
2018-01-18T08:35:00.795Z,976.62
2018-01-18T08:36:00.770Z,976.65
2018-01-18T08:37:00.741Z,976.47
2018-01-18T08:38:00.719Z,976.46
2018-01-18T08:39:00.687Z,976.22
2018-01-18T08:40:00.662Z,976.43
2018-01-18T08:41:00.697Z,976.25
2018-01-18T08:42:00.881Z,976.28
2018-01-18T08:43:00.581Z,976.48
2018-01-18T08:44:00.555Z,976.22
2018-01-18T08:45:00.526Z,976.24
2018-01-18T08:46:00.508Z,976.28
2018-01-18T08:47:00.475Z,976.14
2018-01-18T08:48:00.449Z,976.21
2018-01-18T08:49:00.421Z,976.25
2018-01-18T08:50:00.396Z,976.47
2018-01-18T08:51:00.516Z,976.18
2018-01-18T08:52:00.344Z,976.03
2018-01-18T08:53:00.316Z,975.95
2018-01-18T08:54:00.291Z,976.13
2018-01-18T08:55:00.265Z,976.23
2018-01-18T08:56:00.434Z,976.26
2018-01-18T08:57:00.352Z,976.46
2018-01-18T08:58:00.186Z,976.22
2018-01-18T08:59:00.159Z,976.19
2018-01-18T09:00:00.136Z,975.89
2018-01-18T09:01:00.118Z,976.27
2018-01-18T09:02:00.081Z,976.08
2018-01-18T09:03:00.058Z,976.18
2018-01-18T09:04:00.033Z,976.06
2018-01-18T09:05:00.006Z,975.79
2018-01-18T09:05:59.977Z,976.14
2018-01-18T09:06:59.952Z,976.03
2018-01-18T09:07:59.924Z,975.95
2018-01-18T09:08:59.899Z,975.7
2018-01-18T09:09:59.873Z,975.76
2018-01-18T09:10:59.847Z,975.8
2018-01-18T09:11:59.821Z,975.75
2018-01-18T09:12:59.795Z,975.96
2018-01-18T09:13:59.771Z,975.77
2018-01-18T09:14:59.744Z,975.62
2018-01-18T09:15:59.719Z,975.62
2018-01-18T09:16:59.841Z,975.64
2018-01-18T09:17:59.667Z,975.55
2018-01-18T09:18:59.642Z,975.43
2018-01-18T09:19:59.618Z,975.63
2018-01-18T09:20:59.591Z,975.9
2018-01-18T09:21:59.566Z,975.81
2018-01-18T09:22:59.540Z,975.46
2018-01-18T09:23:59.514Z,975.61
2018-01-18T09:24:59.487Z,975.78
2018-01-18T09:25:59.463Z,975.71
2018-01-18T09:26:59.442Z,975.35
2018-01-18T09:27:59.412Z,975.95
2018-01-18T09:28:59.384Z,976.36
2018-01-18T09:29:59.360Z,975.58
2018-01-18T09:30:59.334Z,976.04
2018-01-18T09:31:59.307Z,975.89
2018-01-18T09:32:59.281Z,975.79
2018-01-18T09:33:59.255Z,976.39
2018-01-18T09:34:59.229Z,976.18
2018-01-18T09:35:59.205Z,976.29
2018-01-18T09:36:59.177Z,975.78
2018-01-18T09:37:59.153Z,976.22
2018-01-18T09:38:59.126Z,976.03
2018-01-18T09:39:59.101Z,976.04
2018-01-18T09:40:59.076Z,976.69
2018-01-18T09:41:59.050Z,975.99
2018-01-18T09:42:59.024Z,976.16
2018-01-18T09:43:58.996Z,975.94
2018-01-18T09:44:59.386Z,976.53
2018-01-18T09:45:59.172Z,976.46
2018-01-18T09:46:59.189Z,975.69
2018-01-18T09:47:58.894Z,976.17
2018-01-18T09:48:58.868Z,975.73
2018-01-18T09:49:58.844Z,976.34
2018-01-18T09:50:58.817Z,976.41
2018-01-18T09:51:58.793Z,976.35
2018-01-18T09:52:58.767Z,976.32
2018-01-18T09:53:58.740Z,976.17
2018-01-18T09:54:58.715Z,976.45
2018-01-18T09:55:58.689Z,976.27
2018-01-18T09:56:58.664Z,976.73
2018-01-18T09:57:58.637Z,975.9
2018-01-18T09:58:58.770Z,976.29
2018-01-18T09:59:58.587Z,976.54
2018-01-18T10:00:58.566Z,976.37
2018-01-18T10:01:58.536Z,976.74
2018-01-18T10:02:58.512Z,976.72
2018-01-18T10:03:58.506Z,976.55
2018-01-18T10:04:58.463Z,976.62
2018-01-18T10:05:58.437Z,976.84
2018-01-18T10:06:58.417Z,977
2018-01-18T10:07:58.389Z,976.86
2018-01-18T10:08:58.364Z,977.36
2018-01-18T10:09:58.345Z,976.94
2018-01-18T10:10:58.317Z,977.2
2018-01-18T10:11:58.291Z,977.11
2018-01-18T10:12:58.266Z,976.78
2018-01-18T10:13:58.244Z,977.16
2018-01-18T10:14:58.219Z,976.42
2018-01-18T10:15:58.198Z,976.94
2018-01-18T10:16:58.170Z,976.92
2018-01-18T10:17:58.146Z,977.03
2018-01-18T10:18:58.122Z,977.07
2018-01-18T10:19:58.098Z,977.3
2018-01-18T10:20:58.073Z,977.85
2018-01-18T10:21:58.048Z,977.62
2018-01-18T10:22:58.023Z,977.53
2018-01-18T10:23:57.998Z,977.78
2018-01-18T10:24:57.975Z,977.52
2018-01-18T10:25:57.952Z,978
2018-01-18T10:26:57.932Z,977.6
2018-01-18T10:27:57.931Z,977.32
2018-01-18T10:28:57.882Z,978.02
2018-01-18T10:29:57.888Z,977.4
2018-01-18T10:30:57.840Z,977.26
2018-01-18T10:31:57.846Z,977.76
2018-01-18T10:32:57.782Z,977.53
2018-01-18T10:33:57.757Z,978.17
2018-01-18T10:34:57.732Z,977.79
2018-01-18T10:35:57.709Z,978.14
2018-01-18T10:36:57.685Z,977.39
2018-01-18T10:37:57.661Z,978.04
2018-01-18T10:38:57.639Z,978.12
2018-01-18T10:39:57.610Z,978.37
2018-01-18T10:40:57.586Z,978.09
2018-01-18T10:41:57.561Z,978.64
2018-01-18T10:42:57.536Z,978.4
2018-01-18T10:43:57.510Z,978.52
2018-01-18T10:44:57.486Z,979.16
2018-01-18T10:45:57.461Z,978.51
2018-01-18T10:46:57.435Z,979.02
2018-01-18T10:47:57.411Z,978.46
2018-01-18T10:48:57.386Z,978.95
2018-01-18T10:49:57.361Z,978.68
2018-01-18T10:50:57.335Z,978.88
2018-01-18T10:51:57.309Z,979.13
2018-01-18T10:52:57.284Z,978.85
2018-01-18T10:53:57.258Z,979.2
2018-01-18T10:54:57.234Z,979.61
2018-01-18T10:55:57.212Z,979.29
2018-01-18T10:56:57.186Z,979.22
2018-01-18T10:57:57.158Z,979.38
2018-01-18T10:58:57.130Z,979.65
2018-01-18T10:59:57.103Z,979.5
2018-01-18T11:00:57.078Z,978.88
2018-01-18T11:01:57.053Z,978.87
2018-01-18T11:02:57.026Z,979.32
2018-01-18T11:03:57.001Z,979.97
2018-01-18T11:04:56.973Z,979.9
2018-01-18T11:05:57.033Z,979.29
2018-01-18T11:06:56.922Z,979.69
2018-01-18T11:07:56.896Z,979.5
2018-01-18T11:08:56.870Z,979.74
2018-01-18T11:09:56.845Z,979.55
2018-01-18T11:10:56.817Z,979.88
2018-01-18T11:11:56.792Z,979.45
2018-01-18T11:12:56.767Z,980.04
2018-01-18T11:13:56.742Z,980.12
2018-01-18T11:14:56.716Z,980.14
2018-01-18T11:15:56.688Z,979.6
2018-01-18T11:16:56.666Z,979.67
2018-01-18T11:17:56.638Z,980.27
2018-01-18T11:18:56.610Z,980.1
2018-01-18T11:19:56.584Z,980.08
2018-01-18T11:20:56.559Z,980.37
2018-01-18T11:21:56.532Z,980.44
2018-01-18T11:22:56.509Z,980.34
2018-01-18T11:23:56.481Z,980.98
2018-01-18T11:24:56.456Z,980.37
2018-01-18T11:25:56.429Z,980.84
2018-01-18T11:26:56.403Z,980.92
2018-01-18T11:27:56.378Z,980.64
2018-01-18T11:28:56.354Z,980.74
2018-01-18T11:29:56.326Z,980.84
2018-01-18T11:30:56.301Z,981.03
2018-01-18T11:31:56.279Z,980.94
2018-01-18T11:32:56.249Z,980.89
2018-01-18T11:33:56.262Z,981.11
2018-01-18T11:34:56.198Z,981.14
2018-01-18T11:35:56.173Z,981.11
2018-01-18T11:36:56.147Z,980.96
2018-01-18T11:37:56.122Z,981.31
2018-01-18T11:38:56.098Z,981.28
2018-01-18T11:39:56.073Z,981.35
2018-01-18T11:40:56.049Z,981.44
2018-01-18T11:41:56.025Z,981.46
2018-01-18T11:42:56.002Z,981.97
2018-01-18T11:43:55.977Z,981.9
2018-01-18T11:44:55.953Z,981.75
2018-01-18T11:45:55.929Z,981.87
2018-01-18T11:46:55.906Z,982.08
2018-01-18T11:47:55.880Z,982.07
2018-01-18T11:48:55.854Z,982.12
2018-01-18T11:49:55.830Z,982.19
2018-01-18T11:50:55.805Z,982.47
2018-01-18T11:51:55.781Z,982.25
2018-01-18T11:52:55.758Z,982.17
2018-01-18T11:53:55.835Z,982.72
2018-01-18T11:54:55.702Z,982.51
2018-01-18T11:55:55.677Z,982.73
2018-01-18T11:56:55.653Z,982.7
2018-01-18T11:57:55.628Z,983.22
2018-01-18T11:58:55.604Z,982.29
2018-01-18T11:59:55.577Z,982.54
2018-01-18T12:00:55.553Z,982.91
2018-01-18T12:01:55.527Z,982.76
2018-01-18T12:02:55.501Z,982.83
2018-01-18T12:03:55.479Z,983.16
2018-01-18T12:04:55.452Z,982.82
2018-01-18T12:05:55.745Z,982.96
2018-01-18T12:06:55.655Z,982.88
2018-01-18T12:07:55.431Z,983.1
2018-01-18T12:08:55.351Z,983.32
2018-01-18T12:09:55.325Z,982.92
2018-01-18T12:10:55.301Z,983.22
2018-01-18T12:11:55.275Z,983.16
2018-01-18T12:12:55.250Z,983.25
2018-01-18T12:13:55.224Z,983.44
2018-01-18T12:14:55.198Z,983.74
2018-01-18T12:15:55.173Z,983.75
2018-01-18T12:16:55.148Z,983.64
2018-01-18T12:17:55.120Z,983.12
2018-01-18T12:18:55.099Z,983.73
2018-01-18T12:19:55.069Z,984.19
2018-01-18T12:20:55.046Z,984.06
2018-01-18T12:21:55.017Z,984.28
2018-01-18T12:22:54.992Z,983.67
2018-01-18T12:23:54.967Z,984.04
2018-01-18T12:24:54.940Z,984.09
2018-01-18T12:25:54.914Z,984.05
2018-01-18T12:26:54.889Z,984.81
2018-01-18T12:27:54.861Z,984.21
2018-01-18T12:28:54.836Z,984.18
2018-01-18T12:29:54.809Z,984.45